Time;durP1;ratioP1;P1;durP2;ratioP2;P2;SDS_P1;SDS_P2;PMS_P1;PMS_P2;Temp;Humidity;BMP_temperature;BMP_pressure;BME280_temperature;BME280_humidity;BME280_pressure;Samples;Min_cycle;Max_cycle;Signal;HPM_P1;HPM_P2
2022/11/29 00:00:13;;;;;;;10.35;9.30;;;;;;;4.12;70.10;95110.28;5015778;28;20195;-69
2022/11/29 00:02:41;;;;;;;8.43;7.72;;;;;;;4.15;69.62;95108.84;5016731;28;20192;-68
2022/11/29 00:05:08;;;;;;;6.50;5.90;;;;;;;4.16;69.92;95105.81;5016508;28;20227;-69
2022/11/29 00:07:37;;;;;;;6.55;6.05;;;;;;;4.16;69.29;95105.81;5016839;28;20187;-69
2022/11/29 00:10:06;;;;;;;6.80;6.20;;;;;;;4.17;69.88;95112.06;5015860;28;20274;-68
2022/11/29 00:12:33;;;;;;;7.07;6.45;;;;;;;4.17;69.85;95110.13;5015547;28;20728;-69
2022/11/29 00:15:00;;;;;;;7.57;6.78;;;;;;;4.20;69.74;95117.72;5016368;28;20203;-69
2022/11/29 00:17:29;;;;;;;8.70;7.57;;;;;;;4.21;69.92;95119.34;5015533;28;20205;-68
2022/11/29 00:19:58;;;;;;;8.50;7.60;;;;;;;4.16;70.06;95114.00;5016123;28;20576;-68
2022/11/29 00:22:25;;;;;;;8.85;7.85;;;;;;;4.14;69.87;95116.25;5014368;28;20245;-69
2022/11/29 00:24:51;;;;;;;9.43;8.43;;;;;;;4.12;69.87;95117.66;5015358;28;20199;-69
2022/11/29 00:27:20;;;;;;;8.45;7.65;;;;;;;4.10;70.14;95120.69;5016269;28;20218;-69
2022/11/29 00:29:48;;;;;;;8.10;7.30;;;;;;;4.12;70.36;95120.38;5015983;28;20226;-69
2022/11/29 00:32:15;;;;;;;8.90;8.00;;;;;;;4.14;70.49;95116.25;5015245;28;20199;-69
2022/11/29 00:34:43;;;;;;;8.75;7.95;;;;;;;4.11;70.49;95111.41;5015304;28;20203;-69
2022/11/29 00:37:11;;;;;;;7.63;6.82;;;;;;;4.07;70.29;95110.41;5015843;28;20545;-69
2022/11/29 00:39:39;;;;;;;7.30;6.60;;;;;;;4.04;70.10;95117.28;5031709;28;20199;-68
2022/11/29 00:42:08;;;;;;;7.35;6.65;;;;;;;4.04;70.44;95120.00;5015301;28;20195;-69
2022/11/29 00:44:35;;;;;;;6.40;5.80;;;;;;;4.07;70.40;95121.31;5015700;28;20195;-69
2022/11/29 00:47:03;;;;;;;5.82;5.07;;;;;;;4.09;69.95;95124.53;5015617;28;20219;-69
2022/11/29 00:49:32;;;;;;;5.30;4.80;;;;;;;4.09;69.74;95119.88;5015948;28;20341;-69
2022/11/29 00:52:04;;;;;;;4.55;4.15;;;;;;;4.12;69.23;95120.38;5015339;28;20651;-69
2022/11/29 00:54:31;;;;;;;4.40;4.00;;;;;;;4.11;68.64;95116.84;5015520;28;20592;-69
2022/11/29 00:56:58;;;;;;;3.90;3.42;;;;;;;4.10;68.77;95121.50;5014922;28;20214;-69
2022/11/29 00:59:26;;;;;;;3.33;3.05;;;;;;;4.07;68.62;95118.59;5015802;28;20179;-69
2022/11/29 01:01:54;;;;;;;3.60;3.30;;;;;;;4.03;68.33;95115.69;5031457;28;20195;-69
2022/11/29 01:04:21;;;;;;;4.40;4.00;;;;;;;4.01;68.68;95117.91;5031252;28;20211;-69
2022/11/29 01:06:50;;;;;;;4.43;3.97;;;;;;;4.00;68.72;95112.75;5015001;28;20215;-69
2022/11/29 01:09:20;;;;;;;3.88;3.58;;;;;;;4.02;68.62;95108.59;5015871;28;20256;-69
2022/11/29 01:11:49;;;;;;;3.95;3.65;;;;;;;4.03;68.41;95104.75;5015906;28;20187;-69
2022/11/29 01:14:17;;;;;;;4.05;3.75;;;;;;;4.00;68.17;95107.31;5014731;28;20187;-69
2022/11/29 01:16:44;;;;;;;4.20;3.80;;;;;;;3.98;68.06;95104.88;5015561;28;20188;-69
2022/11/29 01:19:11;;;;;;;4.10;3.80;;;;;;;3.98;68.66;95099.41;5015866;28;20199;-69
2022/11/29 01:21:38;;;;;;;4.00;3.70;;;;;;;3.90;68.35;95104.81;5014301;28;20214;-69
2022/11/29 01:24:07;;;;;;;4.97;4.47;;;;;;;3.90;68.29;95094.72;5034018;28;20238;-69
2022/11/29 01:26:37;;;;;;;4.10;3.80;;;;;;;3.86;68.46;95099.97;5017606;28;20305;-69
2022/11/29 01:29:05;;;;;;;3.60;3.30;;;;;;;3.81;68.19;95091.09;5018234;28;20198;-69
2022/11/29 01:31:35;;;;;;;3.47;3.17;;;;;;;3.72;68.48;95093.75;5034804;28;20197;-69
2022/11/29 01:34:05;;;;;;;3.70;3.40;;;;;;;3.55;69.15;95086.22;5021036;28;20554;-69
2022/11/29 01:36:32;;;;;;;4.57;3.63;;;;;;;3.59;69.01;95089.16;5023928;28;20201;-69
2022/11/29 01:39:01;;;;;;;3.85;3.55;;;;;;;3.59;68.83;95083.69;5024614;28;20252;-69
2022/11/29 01:41:30;;;;;;;3.65;3.35;;;;;;;3.51;69.61;95085.25;5041642;28;20189;-69
2022/11/29 01:44:02;;;;;;;3.33;3.13;;;;;;;3.53;69.43;95084.94;5041378;28;20217;-69
2022/11/29 01:46:34;;;;;;;4.72;3.75;;;;;;;3.53;69.27;95080.28;5023983;28;20682;-69
2022/11/29 01:49:05;;;;;;;3.80;3.50;;;;;;;3.55;68.76;95078.06;5024293;28;20586;-69
2022/11/29 01:51:33;;;;;;;4.32;3.92;;;;;;;3.49;69.07;95078.50;5024162;28;20217;-69
2022/11/29 01:54:01;;;;;;;4.00;3.30;;;;;;;3.38;69.55;95075.19;5024093;28;20203;-69
2022/11/29 01:56:30;;;;;;;3.42;3.20;;;;;;;3.31;69.81;95072.88;5024033;28;20205;-69
2022/11/29 01:59:03;;;;;;;3.20;3.00;;;;;;;3.40;69.49;95069.41;5024173;28;20216;-69
2022/11/29 02:01:30;;;;;;;3.63;3.33;;;;;;;3.37;69.39;95076.28;5024218;28;20201;-69
2022/11/29 02:03:58;;;;;;;3.40;3.20;;;;;;;3.31;69.68;95067.44;5041592;28;20568;-69
2022/11/29 02:06:26;;;;;;;3.53;3.22;;;;;;;3.27;69.61;95066.44;5041026;28;20222;-69
2022/11/29 02:08:54;;;;;;;3.58;3.35;;;;;;;3.26;69.69;95077.63;5024179;28;20202;-69
2022/11/29 02:11:57;;;;;;;3.30;3.10;;;;;;;3.26;69.92;95078.44;5041428;28;20178;-69
2022/11/29 02:14:42;;;;;;;3.70;3.50;;;;;;;3.34;69.72;95071.44;5009938;28;20213;-69
2022/11/29 02:17:17;;;;;;;3.50;3.20;;;;;;;3.35;69.62;95062.97;5041027;28;20635;-69
2022/11/29 02:20:24;;;;;;;4.05;3.70;;;;;;;3.37;69.54;95066.19;5024068;28;20204;-69
2022/11/29 02:22:58;;;;;;;4.03;3.72;;;;;;;3.40;69.43;95066.69;5035793;28;20241;-69
2022/11/29 02:25:41;;;;;;;3.75;3.50;;;;;;;3.34;69.84;95064.09;5023725;28;20217;-69
2022/11/29 02:29:07;;;;;;;3.92;3.63;;;;;;;3.40;69.58;95066.69;5023958;28;20209;-69
2022/11/29 02:32:02;;;;;;;3.90;3.60;;;;;;;3.36;69.31;95061.84;5023532;28;20202;-70
2022/11/29 02:34:52;;;;;;;3.55;3.35;;;;;;;3.31;69.54;95067.44;5023696;28;20281;-70
2022/11/29 02:37:35;;;;;;;3.30;3.10;;;;;;;3.33;69.40;95062.47;5023995;28;20202;-69
2022/11/29 02:40:23;;;;;;;3.28;3.08;;;;;;;3.36;69.89;95064.59;5023643;28;20214;-69
2022/11/29 02:43:13;;;;;;;3.80;3.50;;;;;;;3.44;68.99;95078.59;5023712;28;20191;-69
2022/11/29 02:45:51;;;;;;;4.20;3.90;;;;;;;3.45;69.13;95069.28;5020730;28;20245;-69
2022/11/29 02:48:33;;;;;;;5.47;5.07;;;;;;;3.45;69.43;95078.31;5020482;28;20202;-69
2022/11/29 02:51:11;;;;;;;4.60;4.30;;;;;;;3.51;69.15;95076.25;5020876;28;20271;-69
2022/11/29 02:53:44;;;;;;;4.55;3.88;;;;;;;3.54;68.81;95067.47;5019688;28;20630;-69
2022/11/29 02:56:17;;;;;;;3.70;3.40;;;;;;;3.58;68.67;95073.91;5020431;28;20206;-69
2022/11/29 02:58:47;;;;;;;3.08;2.88;;;;;;;3.66;68.83;95072.38;5020033;28;20195;-69
2022/11/29 03:01:18;;;;;;;3.70;3.40;;;;;;;3.62;68.42;95070.25;5036689;28;20532;-69
2022/11/29 03:03:50;;;;;;;4.00;3.70;;;;;;;3.64;68.53;95063.69;5019920;28;20297;-68
2022/11/29 03:06:27;;;;;;;4.07;3.78;;;;;;;3.65;68.63;95068.03;5020037;28;20222;-68
2022/11/29 03:09:01;;;;;;;4.40;4.00;;;;;;;3.65;68.77;95077.03;5020141;28;20251;-69
2022/11/29 03:11:34;;;;;;;4.50;4.20;;;;;;;3.63;68.81;95079.22;5020017;28;20219;-69
2022/11/29 03:14:14;;;;;;;4.20;3.90;;;;;;;3.68;68.76;95083.78;5019928;28;20203;-69
2022/11/29 03:16:47;;;;;;;3.90;3.60;;;;;;;3.73;69.08;95086.38;5037442;28;20213;-68
2022/11/29 03:19:33;;;;;;;4.10;3.80;;;;;;;3.79;68.64;95088.69;5020245;28;20542;-68
2022/11/29 03:22:10;;;;;;;4.00;3.70;;;;;;;3.81;68.86;95088.38;5019858;28;20202;-68
2022/11/29 03:24:43;;;;;;;5.20;4.80;;;;;;;3.81;69.08;95093.81;5036910;28;20264;-68
2022/11/29 03:27:13;;;;;;;5.38;4.97;;;;;;;3.85;68.74;95094.84;5037246;28;20207;-68
2022/11/29 03:29:46;;;;;;;5.20;4.80;;;;;;;3.89;68.54;95089.56;5019760;28;20225;-69
2022/11/29 03:32:18;;;;;;;4.85;4.55;;;;;;;3.88;68.66;95096.91;5037144;28;20233;-69
2022/11/29 03:34:55;;;;;;;5.13;4.72;;;;;;;3.92;68.78;95097.94;5036694;28;20212;-69
2022/11/29 03:37:29;;;;;;;4.50;4.20;;;;;;;3.95;68.27;95097.28;5019623;28;20532;-69
2022/11/29 03:40:00;;;;;;;3.28;3.08;;;;;;;3.97;68.73;95102.47;5019268;28;20619;-68
2022/11/29 03:42:31;;;;;;;3.67;3.47;;;;;;;3.94;68.71;95094.91;5036824;28;20213;-68
2022/11/29 03:45:06;;;;;;;3.70;3.50;;;;;;;3.95;68.35;95097.28;5036902;28;20186;-69
2022/11/29 03:47:39;;;;;;;3.78;3.55;;;;;;;3.94;68.12;95089.44;5019367;28;20210;-69
2022/11/29 03:50:13;;;;;;;3.33;3.13;;;;;;;3.94;68.41;95092.97;5019644;28;20205;-69
2022/11/29 03:52:48;;;;;;;3.30;3.03;;;;;;;3.94;68.16;95092.97;5036721;28;20186;-69
2022/11/29 03:55:33;;;;;;;3.40;3.20;;;;;;;3.96;68.17;95088.00;5018962;28;20202;-69
2022/11/29 03:58:22;;;;;;;3.50;3.22;;;;;;;3.94;68.16;95097.63;5036408;28;20198;-69
2022/11/29 04:01:41;;;;;;;3.25;3.05;;;;;;;3.98;68.37;95095.88;5019903;28;20198;-69
2022/11/29 04:04:25;;;;;;;3.47;3.17;;;;;;;4.01;68.28;95095.25;5012076;28;20218;-69
2022/11/29 04:07:04;;;;;;;3.70;3.40;;;;;;;3.97;68.20;95095.09;5036403;28;20230;-69
2022/11/29 04:09:48;;;;;;;3.90;3.50;;;;;;;4.00;68.27;95091.72;5036691;28;20183;-69
2022/11/29 04:12:38;;;;;;;3.58;3.28;;;;;;;4.04;68.11;95097.38;5036428;28;20190;-69
2022/11/29 04:15:46;;;;;;;4.05;3.70;;;;;;;4.03;68.07;95095.75;5035960;28;20241;-69
2022/11/29 04:19:03;;;;;;;3.30;3.10;;;;;;;4.05;68.63;95101.72;5036257;28;20265;-70
2022/11/29 04:22:34;;;;;;;2.92;2.72;;;;;;;4.07;68.63;95096.75;5032389;28;20213;-69
2022/11/29 04:25:15;;;;;;;2.78;2.58;;;;;;;4.06;68.48;95100.59;5033643;28;20210;-69
2022/11/29 04:27:57;;;;;;;3.25;3.05;;;;;;;4.06;67.96;95104.13;5036123;28;20217;-69
2022/11/29 04:30:25;;;;;;;2.80;2.65;;;;;;;4.00;67.90;95099.91;5036180;28;20186;-69
2022/11/29 04:33:30;;;;;;;3.20;3.00;;;;;;;4.00;68.71;95108.09;5018603;28;20241;-69
2022/11/29 04:36:38;;;;;;;3.33;3.10;;;;;;;3.99;68.33;95103.75;5018678;28;20218;-69
2022/11/29 04:39:43;;;;;;;3.40;3.20;;;;;;;3.99;68.71;95101.00;4955951;29;20197;-69
2022/11/29 04:42:52;;;;;;;3.72;3.42;;;;;;;4.00;69.02;95097.19;5018822;28;20198;-69
2022/11/29 04:45:53;;;;;;;6.03;5.43;;;;;;;3.97;68.62;95099.75;5004168;28;20229;-69
2022/11/29 04:48:38;;;;;;;7.13;6.35;;;;;;;3.92;68.78;95097.94;4939882;29;20229;-69
2022/11/29 04:51:15;;;;;;;6.97;6.45;;;;;;;3.90;69.07;95102.91;5018521;28;20191;-71
2022/11/29 04:53:51;;;;;;;7.43;6.78;;;;;;;3.91;68.60;95092.78;5018717;28;20198;-69
2022/11/29 04:56:28;;;;;;;8.23;7.40;;;;;;;3.85;68.97;95089.38;5018173;28;20200;-69
2022/11/29 04:59:01;;;;;;;9.07;8.25;;;;;;;3.79;68.73;95090.63;5018212;28;20216;-69
2022/11/29 05:01:36;;;;;;;10.68;9.68;;;;;;;3.76;68.98;95091.22;5018770;28;20206;-69
2022/11/29 05:04:09;;;;;;;11.30;10.30;;;;;;;3.75;69.28;95098.59;5018239;28;20198;-69
2022/11/29 05:06:43;;;;;;;13.52;12.18;;;;;;;3.74;69.24;95088.81;5017872;28;20265;-69
2022/11/29 05:09:18;;;;;;;14.02;12.70;;;;;;;3.74;69.73;95085.25;5017606;28;20191;-69
2022/11/29 05:11:58;;;;;;;11.55;10.38;;;;;;;3.77;69.49;95090.91;5018014;28;20210;-69
2022/11/29 05:14:37;;;;;;;9.80;8.77;;;;;;;3.74;69.60;95086.09;5018018;28;20221;-69
2022/11/29 05:17:25;;;;;;;8.25;7.55;;;;;;;3.68;69.63;95091.97;5018055;28;20202;-69
2022/11/29 05:20:01;;;;;;;7.80;7.10;;;;;;;3.64;70.59;95091.78;5035651;28;20182;-69
2022/11/29 05:22:35;;;;;;;8.07;7.38;;;;;;;3.69;70.33;95088.91;5014751;28;20285;-70
2022/11/29 05:25:16;;;;;;;8.88;8.07;;;;;;;3.53;70.79;95087.69;5030773;28;20210;-69
2022/11/29 05:27:47;;;;;;;9.35;8.38;;;;;;;3.56;71.06;95089.78;5015189;28;20207;-69
2022/11/29 05:30:18;;;;;;;11.80;10.70;;;;;;;3.61;70.74;95074.09;5014834;28;20260;-69
2022/11/29 05:32:56;;;;;;;9.52;8.73;;;;;;;3.61;70.55;95082.28;5015114;28;20524;-68
2022/11/29 05:35:40;;;;;;;8.75;7.95;;;;;;;3.59;71.25;95089.97;5031595;28;20199;-68
2022/11/29 05:38:24;;;;;;;8.45;7.65;;;;;;;3.61;70.46;95090.47;5015465;28;20201;-68
2022/11/29 05:41:03;;;;;;;6.82;6.20;;;;;;;3.65;70.89;95087.94;5015328;28;20183;-68
2022/11/29 05:43:47;;;;;;;6.30;5.68;;;;;;;3.71;70.93;95092.16;5014398;28;20673;-68
2022/11/29 05:46:21;;;;;;;5.68;5.18;;;;;;;3.76;70.75;95089.31;5015279;28;20205;-68
2022/11/29 05:48:57;;;;;;;6.05;5.65;;;;;;;3.74;70.40;95096.16;5015484;28;20249;-69
2022/11/29 05:51:37;;;;;;;5.93;5.43;;;;;;;3.71;70.42;95092.16;5015107;28;20203;-69
2022/11/29 05:54:13;;;;;;;5.88;5.35;;;;;;;3.68;70.50;95094.69;5015032;28;20248;-69
2022/11/29 05:56:48;;;;;;;6.30;5.47;;;;;;;3.66;70.73;95086.81;5015359;28;20268;-69
2022/11/29 05:59:19;;;;;;;5.80;5.30;;;;;;;3.73;70.59;95092.63;5015003;28;20230;-69
2022/11/29 06:01:54;;;;;;;6.63;6.13;;;;;;;3.79;70.26;95091.41;5014448;28;20198;-68
2022/11/29 06:04:27;;;;;;;7.72;7.10;;;;;;;3.77;70.41;95099.09;5030913;28;20214;-69
2022/11/29 06:07:01;;;;;;;10.32;8.57;;;;;;;3.76;70.52;95094.75;5013897;28;20229;-69
2022/11/29 06:09:32;;;;;;;10.27;8.55;;;;;;;3.75;70.92;95095.06;5014674;28;20195;-68
2022/11/29 06:12:04;;;;;;;11.15;8.82;;;;;;;3.75;70.72;95084.97;5014524;28;20207;-69
2022/11/29 06:14:55;;;;;;;9.93;8.93;;;;;;;3.79;70.93;95096.88;5014466;28;20214;-69
2022/11/29 06:17:33;;;;;;;10.25;9.25;;;;;;;3.84;70.66;95095.94;5014351;28;20199;-69
2022/11/29 06:20:43;;;;;;;9.30;8.43;;;;;;;3.78;70.84;95100.72;5013878;28;20635;-69
2022/11/29 06:23:36;;;;;;;6.95;6.15;;;;;;;3.78;70.50;95094.47;5017544;28;20242;-69
2022/11/29 06:26:17;;;;;;;6.72;6.03;;;;;;;3.75;70.92;95090.44;5018059;28;20203;-68
2022/11/29 06:28:54;;;;;;;6.88;6.28;;;;;;;3.65;70.72;95087.94;5017686;28;20214;-70
2022/11/29 06:31:28;;;;;;;9.20;8.30;;;;;;;3.74;70.74;95102.47;5018545;28;20256;-69
2022/11/29 06:34:01;;;;;;;6.85;6.15;;;;;;;3.76;70.89;95099.41;5018577;28;20198;-70
2022/11/29 06:36:34;;;;;;;7.57;6.88;;;;;;;3.77;71.10;95099.09;5017711;28;20512;-68
2022/11/29 06:39:03;;;;;;;9.95;8.82;;;;;;;3.78;70.76;95097.19;5017381;28;20565;-68
2022/11/29 06:41:31;;;;;;;8.80;7.68;;;;;;;3.71;71.10;95099.53;5017647;28;20195;-68
2022/11/29 06:44:00;;;;;;;6.32;5.68;;;;;;;3.65;70.89;95104.28;5018414;28;20257;-69
2022/11/29 06:46:39;;;;;;;6.82;6.00;;;;;;;3.68;70.91;95103.69;5018003;28;20206;-68
2022/11/29 06:49:10;;;;;;;9.68;8.68;;;;;;;3.66;71.29;95110.56;5018094;28;20210;-69
2022/11/29 06:51:46;;;;;;;11.95;10.65;;;;;;;3.72;70.80;95112.06;5018339;28;20191;-69
2022/11/29 06:54:24;;;;;;;13.43;11.00;;;;;;;3.79;71.39;95110.50;5033784;28;20207;-69
2022/11/29 06:56:57;;;;;;;13.18;9.73;;;;;;;3.87;70.89;95114.41;5018149;28;20188;-68
2022/11/29 06:59:44;;;;;;;12.30;10.20;;;;;;;3.95;70.83;95112.88;5017177;28;20210;-69
2022/11/29 07:02:24;;;;;;;11.70;10.50;;;;;;;3.98;70.88;95118.50;5017647;28;20187;-68
2022/11/29 07:05:07;;;;;;;11.20;10.05;;;;;;;4.03;70.50;95120.31;5017877;28;20229;-69
2022/11/29 07:07:35;;;;;;;10.07;8.63;;;;;;;4.08;70.36;95118.28;5017463;28;20567;-69
2022/11/29 07:10:06;;;;;;;8.13;7.32;;;;;;;4.13;70.10;95114.59;5016789;28;20203;-68
2022/11/29 07:12:35;;;;;;;7.47;6.78;;;;;;;4.19;69.84;95118.84;5000745;28;20187;-69
2022/11/29 07:15:04;;;;;;;7.32;6.72;;;;;;;4.24;69.65;95124.16;5017547;28;20188;-69
2022/11/29 07:17:38;;;;;;;8.00;7.30;;;;;;;4.26;69.56;95121.13;5017689;28;20175;-69
2022/11/29 07:20:12;;;;;;;11.95;10.77;;;;;;;4.23;69.19;95124.47;5017631;28;20240;-69
2022/11/29 07:22:54;;;;;;;7.60;7.00;;;;;;;4.27;69.06;95122.72;5023873;28;20526;-69
2022/11/29 07:25:33;;;;;;;7.95;7.25;;;;;;;4.29;68.85;95132.22;5020163;28;20194;-69
2022/11/29 07:28:09;;;;;;;7.15;6.45;;;;;;;4.28;68.78;95129.78;5037172;28;20210;-69
2022/11/29 07:30:45;;;;;;;7.53;6.65;;;;;;;4.31;68.67;95126.44;5037297;28;20248;-71
2022/11/29 07:33:18;;;;;;;7.82;7.13;;;;;;;4.31;68.68;95124.53;5019907;28;20205;-71
2022/11/29 07:35:53;;;;;;;8.63;7.72;;;;;;;4.34;68.30;95114.91;5037708;28;20186;-70
2022/11/29 07:38:27;;;;;;;8.90;7.75;;;;;;;4.35;68.69;95120.03;5020061;28;20194;-69
2022/11/29 07:41:00;;;;;;;7.68;6.93;;;;;;;4.39;68.27;95119.44;5019836;28;20202;-70
2022/11/29 07:43:37;;;;;;;7.85;7.07;;;;;;;4.43;68.22;95120.41;5019992;28;20202;-69
2022/11/29 07:46:05;;;;;;;8.15;7.43;;;;;;;4.45;68.52;95104.53;5020003;28;20205;-70
2022/11/29 07:48:33;;;;;;;9.30;8.40;;;;;;;4.49;68.29;95116.44;5019479;28;20531;-70
2022/11/29 07:51:03;;;;;;;10.18;8.88;;;;;;;4.49;68.15;95110.97;5019184;28;20203;-70
2022/11/29 07:53:31;;;;;;;10.57;9.48;;;;;;;4.53;68.12;95114.69;5037453;28;20187;-69
2022/11/29 07:55:59;;;;;;;12.85;11.23;;;;;;;4.54;68.14;95110.84;5037089;28;20191;-70
2022/11/29 07:58:26;;;;;;;11.95;10.85;;;;;;;4.57;68.29;95102.00;5019723;28;20202;-69
2022/11/29 08:00:54;;;;;;;11.55;10.55;;;;;;;4.58;68.33;95109.91;5036293;28;20186;-69
2022/11/29 08:03:22;;;;;;;9.52;8.50;;;;;;;4.66;68.21;95116.53;5019985;28;20194;-70
2022/11/29 08:05:52;;;;;;;9.52;8.45;;;;;;;4.69;67.95;95110.44;5019132;28;20195;-69
2022/11/29 08:08:21;;;;;;;7.88;7.18;;;;;;;4.68;68.09;95127.94;5036720;28;20222;-70
2022/11/29 08:10:50;;;;;;;7.30;6.60;;;;;;;4.67;67.65;95120.06;5036613;28;20260;-70
2022/11/29 08:13:19;;;;;;;5.10;4.60;;;;;;;4.63;67.41;95125.34;5036177;28;20202;-70
2022/11/29 08:15:48;;;;;;;4.15;3.75;;;;;;;4.54;67.38;95125.31;5019177;28;20210;-69
2022/11/29 08:18:16;;;;;;;5.03;4.30;;;;;;;4.51;67.45;95123.22;5036673;28;20182;-70
2022/11/29 08:20:45;;;;;;;4.63;4.20;;;;;;;4.47;67.41;95119.50;5036777;28;20264;-69
2022/11/29 08:23:13;;;;;;;7.00;6.40;;;;;;;4.46;67.85;95130.72;5035942;28;20564;-69
2022/11/29 08:25:44;;;;;;;4.72;4.35;;;;;;;4.41;68.06;95117.19;5019663;28;20194;-70
2022/11/29 08:28:12;;;;;;;5.30;4.80;;;;;;;4.52;68.05;95126.75;5019669;28;20226;-70
2022/11/29 08:30:40;;;;;;;3.78;3.47;;;;;;;4.63;67.72;95127.28;5019297;28;20198;-70
2022/11/29 08:33:06;;;;;;;4.53;3.22;;;;;;;4.65;67.55;95125.84;5035602;28;20202;-70
2022/11/29 08:35:35;;;;;;;3.72;3.42;;;;;;;4.63;67.66;95132.75;5036363;28;20248;-70
2022/11/29 08:38:02;;;;;;;4.28;3.88;;;;;;;4.71;67.54;95130.03;5036102;28;20206;-70
2022/11/29 08:40:29;;;;;;;5.90;5.13;;;;;;;4.78;67.53;95132.34;5034879;28;20668;-69
2022/11/29 08:42:59;;;;;;;5.72;4.97;;;;;;;4.83;67.84;95137.69;5034978;28;20547;-69
2022/11/29 08:45:27;;;;;;;4.32;3.95;;;;;;;4.88;67.45;95137.53;5035884;28;20193;-69
2022/11/29 08:47:56;;;;;;;4.78;4.38;;;;;;;4.95;67.19;95137.06;5035672;28;20217;-69
2022/11/29 08:50:24;;;;;;;5.15;4.35;;;;;;;4.99;67.23;95132.59;5001835;28;20622;-69
2022/11/29 08:55:41;;;;;;;3.90;3.60;;;;;;;4.98;66.85;95136.44;5018964;28;20207;-69
2022/11/29 08:58:12;;;;;;;7.28;6.65;;;;;;;4.95;66.72;95132.41;5035687;28;20245;-69
2022/11/29 09:00:39;;;;;;;9.25;8.55;;;;;;;4.95;67.22;95137.88;5018196;28;20210;-69
2022/11/29 09:05:51;;;;;;;4.82;4.43;;;;;;;4.82;67.33;95131.38;5035196;28;20674;-69
2022/11/29 09:08:20;;;;;;;6.40;5.80;;;;;;;4.77;67.89;95131.53;5035505;28;20317;-69
2022/11/29 09:10:50;;;;;;;11.68;10.45;;;;;;;4.78;67.71;95122.19;5034618;28;20210;-70
2022/11/29 09:13:20;;;;;;;11.23;10.07;;;;;;;4.82;67.62;95119.66;5035443;28;20273;-70
2022/11/29 09:15:49;;;;;;;11.00;9.98;;;;;;;4.86;67.85;95122.56;5035516;28;20190;-69
2022/11/29 09:18:21;;;;;;;12.43;10.63;;;;;;;4.93;68.09;95117.44;5002002;28;20615;-69
2022/11/29 09:20:49;;;;;;;12.75;11.65;;;;;;;4.92;67.87;95118.56;5035286;28;20216;-70
2022/11/29 09:23:18;;;;;;;12.57;10.63;;;;;;;4.92;68.16;95122.09;5035168;28;20230;-69
2022/11/29 09:25:48;;;;;;;10.90;9.85;;;;;;;4.91;68.01;95123.25;5017962;28;20222;-70
2022/11/29 09:28:17;;;;;;;11.35;9.93;;;;;;;4.88;68.28;95112.13;5017652;28;20233;-69
2022/11/29 09:30:48;;;;;;;11.05;10.02;;;;;;;4.92;68.12;95108.44;5017856;28;20198;-69
2022/11/29 09:33:16;;;;;;;10.63;9.45;;;;;;;4.88;68.08;95104.72;5017988;28;20193;-70
2022/11/29 09:35:44;;;;;;;10.43;9.43;;;;;;;4.91;68.21;95098.63;5017658;28;20194;-69
2022/11/29 09:38:12;;;;;;;10.52;9.35;;;;;;;4.93;68.09;95099.13;5018088;28;20653;-69
2022/11/29 09:40:48;;;;;;;10.45;9.45;;;;;;;4.98;68.24;95084.50;5034352;28;20202;-70
2022/11/29 09:43:27;;;;;;;9.65;8.18;;;;;;;4.99;67.91;95088.84;5017660;28;20197;-70
2022/11/29 09:46:05;;;;;;;11.07;10.05;;;;;;;4.96;68.02;95082.09;5017610;28;20198;-70
2022/11/29 09:48:42;;;;;;;11.70;10.45;;;;;;;5.07;68.18;95079.88;5017426;28;20233;-70
2022/11/29 09:51:18;;;;;;;11.75;10.55;;;;;;;5.09;68.20;95072.16;5017300;28;20201;-70
2022/11/29 09:54:09;;;;;;;10.52;9.63;;;;;;;5.10;67.90;95084.69;5017967;28;20279;-70
2022/11/29 09:56:39;;;;;;;9.55;8.63;;;;;;;5.09;67.77;95080.38;5036117;28;20633;-70
2022/11/29 09:59:11;;;;;;;9.07;8.18;;;;;;;5.10;67.73;95078.44;5021274;28;20190;-70
2022/11/29 10:01:47;;;;;;;10.23;9.32;;;;;;;5.04;67.92;95084.03;5037546;28;20224;-70
2022/11/29 10:04:19;;;;;;;8.57;7.88;;;;;;;4.99;67.50;95077.91;5021764;28;20194;-70
2022/11/29 10:07:03;;;;;;;8.23;7.43;;;;;;;4.97;68.24;95074.69;5021585;28;20194;-70
2022/11/29 10:09:39;;;;;;;7.85;7.15;;;;;;;5.00;67.96;95069.38;5038700;28;20213;-69
2022/11/29 10:12:14;;;;;;;7.60;6.65;;;;;;;5.06;67.63;95059.13;5038931;28;20190;-69
2022/11/29 10:14:48;;;;;;;6.57;6.05;;;;;;;5.04;68.10;95056.69;5021387;28;20202;-69
2022/11/29 10:17:26;;;;;;;6.80;6.18;;;;;;;5.01;67.89;95056.53;5021129;28;20229;-69
2022/11/29 10:19:58;;;;;;;7.40;6.65;;;;;;;4.98;67.99;95059.91;5021807;28;20252;-69
2022/11/29 10:22:31;;;;;;;7.97;7.18;;;;;;;4.96;67.85;95062.16;5018205;28;20285;-69
2022/11/29 10:25:01;;;;;;;7.20;6.60;;;;;;;4.97;67.97;95052.81;5018800;28;20199;-69
2022/11/29 10:27:29;;;;;;;7.05;6.40;;;;;;;5.01;67.58;95059.25;5019099;28;20187;-69
2022/11/29 10:30:01;;;;;;;7.28;6.55;;;;;;;5.09;68.10;95055.75;5017751;28;20215;-69
2022/11/29 10:32:33;;;;;;;6.53;5.80;;;;;;;5.11;67.93;95050.75;5018895;28;20191;-69
2022/11/29 10:35:02;;;;;;;7.97;7.18;;;;;;;5.05;68.25;95050.13;5018379;28;20203;-69
2022/11/29 10:37:31;;;;;;;7.47;6.88;;;;;;;4.95;68.13;95046.88;5018099;28;20198;-69
2022/11/29 10:40:03;;;;;;;7.53;6.28;;;;;;;4.99;68.13;95045.13;5018738;28;20253;-69
2022/11/29 10:45:36;;;;;;;8.30;7.60;;;;;;;5.06;68.44;95040.78;5017801;28;20199;-70
2022/11/29 10:48:11;;;;;;;8.95;8.15;;;;;;;5.09;68.33;95044.81;5014999;28;20203;-69
2022/11/29 10:50:42;;;;;;;17.15;15.75;;;;;;;5.14;68.71;95050.13;5018164;28;20199;-69
2022/11/29 10:53:11;;;;;;;11.88;10.88;;;;;;;5.20;68.67;95035.19;5017830;28;20210;-69
2022/11/29 10:55:43;;;;;;;8.50;7.80;;;;;;;5.25;69.06;95045.16;5018367;28;20202;-70
2022/11/29 10:58:18;;;;;;;9.65;8.63;;;;;;;5.28;68.86;95028.13;5018118;28;20203;-69
2022/11/29 11:00:51;;;;;;;14.85;13.65;;;;;;;5.22;69.50;95041.13;5017507;28;20252;-69
2022/11/29 11:03:34;;;;;;;9.57;8.88;;;;;;;5.21;69.93;95050.47;5017335;28;20664;-69
2022/11/29 11:06:09;;;;;;;13.93;12.68;;;;;;;5.23;70.38;95047.44;5016727;28;20199;-69
2022/11/29 11:08:39;;;;;;;11.90;11.00;;;;;;;5.29;69.68;95048.88;5016862;28;20222;-69
2022/11/29 11:11:08;;;;;;;9.02;8.27;;;;;;;5.25;70.20;95048.69;5017051;28;20195;-69
2022/11/29 11:13:38;;;;;;;11.55;10.45;;;;;;;5.31;70.07;95041.97;5018294;28;20195;-69
2022/11/29 11:16:16;;;;;;;10.00;9.10;;;;;;;5.30;70.43;95048.56;5017886;28;20202;-69
2022/11/29 11:18:50;;;;;;;7.50;6.75;;;;;;;5.33;70.42;95055.31;5017219;28;20199;-70
2022/11/29 11:21:22;;;;;;;7.15;6.18;;;;;;;5.28;70.73;95055.47;5016452;28;20211;-69
2022/11/29 11:23:58;;;;;;;6.35;4.82;;;;;;;5.29;70.70;95057.88;5033184;28;20234;-69
2022/11/29 11:26:26;;;;;;;4.68;4.20;;;;;;;5.28;70.38;95056.28;5020287;28;20263;-69
2022/11/29 11:28:56;;;;;;;5.68;5.18;;;;;;;5.32;70.42;95057.25;5019629;28;20222;-68
2022/11/29 11:31:33;;;;;;;6.10;5.15;;;;;;;5.37;70.53;95063.66;5037191;28;20183;-68
2022/11/29 11:34:37;;;;;;;6.78;6.15;;;;;;;5.42;70.63;95058.88;5036636;28;20213;-69
2022/11/29 11:37:23;;;;;;;5.63;5.00;;;;;;;5.45;70.72;95058.22;5019656;28;20217;-69
2022/11/29 11:39:55;;;;;;;6.65;5.95;;;;;;;5.37;71.07;95060.94;5019813;28;20194;-68
2022/11/29 11:42:43;;;;;;;6.30;5.70;;;;;;;5.40;70.97;95065.78;5019338;28;20260;-69
2022/11/29 11:45:24;;;;;;;7.18;6.28;;;;;;;5.45;71.04;95051.97;5019445;28;20615;-69
2022/11/29 11:47:52;;;;;;;6.60;6.00;;;;;;;5.50;71.18;95063.53;5019479;28;20285;-69
2022/11/29 11:50:30;;;;;;;5.63;5.13;;;;;;;5.54;70.80;95050.03;5036265;28;20222;-69
2022/11/29 11:53:03;;;;;;;6.53;5.93;;;;;;;5.59;70.84;95060.00;5019090;28;20190;-69
2022/11/29 11:55:37;;;;;;;6.28;5.68;;;;;;;5.57;70.17;95057.59;5019934;28;20214;-69
2022/11/29 11:58:14;;;;;;;5.53;4.82;;;;;;;5.62;70.31;95051.16;5019096;28;20197;-69
2022/11/29 12:00:47;;;;;;;8.10;7.35;;;;;;;5.65;70.29;95054.03;5019055;28;20229;-69
2022/11/29 12:03:35;;;;;;;6.57;5.95;;;;;;;5.61;70.16;95053.09;5019221;28;20206;-69
2022/11/29 12:06:26;;;;;;;10.00;8.93;;;;;;;5.63;70.18;95053.56;5019065;28;20207;-69
2022/11/29 12:09:05;;;;;;;14.60;12.15;;;;;;;5.65;70.17;95048.56;5019021;28;20225;-69
2022/11/29 12:11:42;;;;;;;11.18;9.98;;;;;;;5.69;70.14;95054.19;5019224;28;20210;-69
2022/11/29 12:14:20;;;;;;;10.25;9.23;;;;;;;5.72;69.77;95048.09;5019268;28;20202;-69
2022/11/29 12:16:49;;;;;;;11.70;10.50;;;;;;;5.69;69.44;95041.31;5036118;28;20213;-68
2022/11/29 12:19:23;;;;;;;10.95;7.90;;;;;;;5.70;69.28;95045.69;5018936;28;20549;-69
2022/11/29 12:21:56;;;;;;;10.90;9.52;;;;;;;5.70;69.03;95044.84;5018859;28;20195;-69
2022/11/29 12:24:28;;;;;;;7.82;7.13;;;;;;;5.68;69.12;95039.72;5012579;28;20207;-68